LTU8403 EDDM-EDDL
Flight info
| Callsign | LTU8403 |
|---|---|
| Flight time | N/A |
| Altitude | 32000 |
| Route | INPUD2N/26R INPUD Y102 TESDU DCT AMETU T852 TINSA T854 DOMUX DOMUX1A |
| Aircraft | A333/H-SDE2E3FGHIJ3J4J5LM1ORVWXY/LB2D1 |
Departure
| Time | 2026-05-05 15:28 |
|---|---|
| Airport | Munich Airport (EDDM) |
Arrival
| Time | N/A |
|---|---|
| Airport | Düsseldorf Airport (EDDL) |
| Time | Latitude | Longitude | Altitude | Speed | Heading |
|---|---|---|---|---|---|
| 2026-05-05 14:49 | 48.35276 | 11.78305 | 1486 ft | 0 kts | 83° |
| 2026-05-05 15:12 | 48.35275 | 11.78295 | 1486 ft | 2 kts | 83° |
| 2026-05-05 15:12 | 48.35273 | 11.78272 | 1486 ft | 2 kts | 83° |
| 2026-05-05 15:13 | 48.35271 | 11.78250 | 1486 ft | 2 kts | 83° |
| 2026-05-05 15:13 | 48.35269 | 11.78228 | 1487 ft | 2 kts | 83° |
| 2026-05-05 15:13 | 48.35266 | 11.78206 | 1487 ft | 2 kts | 57° |
| 2026-05-05 15:13 | 48.35256 | 11.78189 | 1487 ft | 2 kts | 32° |
| 2026-05-05 15:14 | 48.35242 | 11.78180 | 1487 ft | 2 kts | 8° |
| 2026-05-05 15:14 | 48.35228 | 11.78180 | 1487 ft | 2 kts | 349° |
| 2026-05-05 15:14 | 48.35213 | 11.78184 | 1487 ft | 2 kts | 352° |
| 2026-05-05 15:14 | 48.35207 | 11.78185 | 1487 ft | 0 kts | 353° |
| 2026-05-05 15:16 | 48.35208 | 11.78185 | 1487 ft | 0 kts | 353° |
| 2026-05-05 15:16 | 48.35212 | 11.78184 | 1487 ft | 1 kts | 353° |
| 2026-05-05 15:16 | 48.35238 | 11.78179 | 1487 ft | 5 kts | 353° |
| 2026-05-05 15:17 | 48.35287 | 11.78171 | 1487 ft | 8 kts | 353° |
| 2026-05-05 15:17 | 48.35338 | 11.78132 | 1486 ft | 8 kts | 303° |
| 2026-05-05 15:17 | 48.35346 | 11.78050 | 1487 ft | 7 kts | 266° |
| 2026-05-05 15:17 | 48.35341 | 11.77974 | 1487 ft | 7 kts | 264° |
| 2026-05-05 15:18 | 48.35334 | 11.77879 | 1487 ft | 10 kts | 264° |
| 2026-05-05 15:18 | 48.35362 | 11.77788 | 1486 ft | 10 kts | 335° |
| 2026-05-05 15:18 | 48.35434 | 11.77768 | 1486 ft | 10 kts | 353° |
| 2026-05-05 15:18 | 48.35508 | 11.77755 | 1485 ft | 10 kts | 353° |
| 2026-05-05 15:19 | 48.35581 | 11.77742 | 1485 ft | 10 kts | 353° |
| 2026-05-05 15:19 | 48.35655 | 11.77729 | 1484 ft | 10 kts | 353° |
| 2026-05-05 15:19 | 48.35735 | 11.77715 | 1483 ft | 13 kts | 354° |
| 2026-05-05 15:19 | 48.35843 | 11.77696 | 1482 ft | 17 kts | 353° |
| 2026-05-05 15:20 | 48.35968 | 11.77674 | 1482 ft | 17 kts | 354° |
| 2026-05-05 15:20 | 48.36064 | 11.77686 | 1481 ft | 13 kts | 46° |
| 2026-05-05 15:20 | 48.36087 | 11.77816 | 1481 ft | 13 kts | 83° |
| 2026-05-05 15:20 | 48.36098 | 11.77956 | 1481 ft | 14 kts | 83° |
| 2026-05-05 15:21 | 48.36109 | 11.78106 | 1480 ft | 14 kts | 84° |
| 2026-05-05 15:21 | 48.36121 | 11.78261 | 1480 ft | 14 kts | 83° |
| 2026-05-05 15:21 | 48.36134 | 11.78418 | 1480 ft | 16 kts | 84° |
| 2026-05-05 15:21 | 48.36147 | 11.78600 | 1479 ft | 18 kts | 83° |
| 2026-05-05 15:22 | 48.36163 | 11.78802 | 1478 ft | 19 kts | 84° |
| 2026-05-05 15:22 | 48.36178 | 11.79010 | 1477 ft | 20 kts | 83° |
| 2026-05-05 15:22 | 48.36195 | 11.79219 | 1476 ft | 20 kts | 84° |
| 2026-05-05 15:22 | 48.36210 | 11.79429 | 1475 ft | 20 kts | 83° |
| 2026-05-05 15:23 | 48.36226 | 11.79641 | 1473 ft | 20 kts | 83° |
| 2026-05-05 15:23 | 48.36243 | 11.79854 | 1472 ft | 20 kts | 83° |
| 2026-05-05 15:23 | 48.36259 | 11.80065 | 1471 ft | 20 kts | 83° |
| 2026-05-05 15:23 | 48.36275 | 11.80274 | 1470 ft | 20 kts | 83° |
| 2026-05-05 15:24 | 48.36292 | 11.80489 | 1469 ft | 20 kts | 84° |
| 2026-05-05 15:24 | 48.36308 | 11.80702 | 1468 ft | 20 kts | 83° |
| 2026-05-05 15:24 | 48.36324 | 11.80917 | 1466 ft | 20 kts | 84° |
| 2026-05-05 15:24 | 48.36342 | 11.81136 | 1465 ft | 20 kts | 83° |
| 2026-05-05 15:25 | 48.36357 | 11.81353 | 1464 ft | 21 kts | 83° |
| 2026-05-05 15:25 | 48.36374 | 11.81569 | 1463 ft | 20 kts | 83° |
| 2026-05-05 15:25 | 48.36392 | 11.81779 | 1463 ft | 19 kts | 83° |
| 2026-05-05 15:25 | 48.36390 | 11.81961 | 1463 ft | 16 kts | 94° |
| 2026-05-05 15:26 | 48.36403 | 11.82106 | 1463 ft | 12 kts | 60° |
| 2026-05-05 15:26 | 48.36474 | 11.82135 | 1463 ft | 10 kts | 355° |
| 2026-05-05 15:26 | 48.36546 | 11.82120 | 1463 ft | 10 kts | 352° |
| 2026-05-05 15:26 | 48.36614 | 11.82095 | 1463 ft | 9 kts | 344° |
| 2026-05-05 15:27 | 48.36671 | 11.82051 | 1462 ft | 8 kts | 307° |
| 2026-05-05 15:27 | 48.36676 | 11.81974 | 1462 ft | 0 kts | 265° |
| 2026-05-05 15:27 | 48.36675 | 11.81953 | 1463 ft | 9 kts | 264° |
| 2026-05-05 15:28 | 48.36642 | 11.81514 | 1463 ft | 78 kts | 264° |
| 2026-05-05 15:28 | 48.36552 | 11.80349 | 1468 ft | 142 kts | 264° |
| 2026-05-05 15:28 | 48.36418 | 11.78676 | 1748 ft | 169 kts | 262° |
| 2026-05-05 15:28 | 48.36225 | 11.76960 | 2453 ft | 171 kts | 263° |
| 2026-05-05 15:29 | 48.36060 | 11.75192 | 3231 ft | 173 kts | 265° |
| 2026-05-05 15:29 | 48.35934 | 11.73403 | 3635 ft | 181 kts | 266° |
| 2026-05-05 15:29 | 48.35811 | 11.71453 | 3906 ft | 197 kts | 266° |
| 2026-05-05 15:29 | 48.35872 | 11.69263 | 4150 ft | 222 kts | 289° |
| 2026-05-05 15:30 | 48.36764 | 11.67362 | 4752 ft | 232 kts | 322° |
| 2026-05-05 15:30 | 48.38235 | 11.66223 | 5362 ft | 243 kts | 330° |
| 2026-05-05 15:30 | 48.39809 | 11.65108 | 5818 ft | 261 kts | 340° |
| 2026-05-05 15:30 | 48.41602 | 11.64386 | 6343 ft | 277 kts | 346° |
| 2026-05-05 15:31 | 48.43518 | 11.63752 | 7036 ft | 286 kts | 348° |
| 2026-05-05 15:31 | 48.45499 | 11.63149 | 7812 ft | 292 kts | 348° |
| 2026-05-05 15:31 | 48.47476 | 11.62566 | 8643 ft | 295 kts | 349° |
| 2026-05-05 15:31 | 48.49456 | 11.61780 | 9438 ft | 298 kts | 339° |
| 2026-05-05 15:32 | 48.51432 | 11.60707 | 10191 ft | 303 kts | 340° |
| 2026-05-05 15:32 | 48.53443 | 11.59623 | 10670 ft | 319 kts | 339° |
| 2026-05-05 15:32 | 48.55611 | 11.58445 | 11070 ft | 338 kts | 339° |
| 2026-05-05 15:32 | 48.57883 | 11.57209 | 11452 ft | 355 kts | 339° |
| 2026-05-05 15:33 | 48.60239 | 11.55926 | 11815 ft | 372 kts | 339° |
| 2026-05-05 15:33 | 48.62712 | 11.54578 | 12387 ft | 382 kts | 339° |
| 2026-05-05 15:33 | 48.65224 | 11.53208 | 13125 ft | 385 kts | 339° |
| 2026-05-05 15:33 | 48.67736 | 11.51835 | 13875 ft | 388 kts | 339° |
| 2026-05-05 15:34 | 48.70280 | 11.50444 | 14613 ft | 390 kts | 339° |
| 2026-05-05 15:34 | 48.72858 | 11.49033 | 15320 ft | 394 kts | 339° |
| 2026-05-05 15:34 | 48.75417 | 11.47630 | 15982 ft | 397 kts | 339° |
| 2026-05-05 15:34 | 48.78042 | 11.46190 | 16619 ft | 401 kts | 339° |
| 2026-05-05 15:35 | 48.80682 | 11.44741 | 17250 ft | 405 kts | 339° |
| 2026-05-05 15:35 | 48.83324 | 11.43288 | 17861 ft | 409 kts | 339° |
| 2026-05-05 15:35 | 48.85999 | 11.41815 | 18466 ft | 412 kts | 339° |
| 2026-05-05 15:35 | 48.88719 | 11.40315 | 19012 ft | 417 kts | 339° |
| 2026-05-05 15:36 | 48.91477 | 11.38793 | 19563 ft | 422 kts | 339° |
| 2026-05-05 15:36 | 48.94240 | 11.37265 | 20106 ft | 426 kts | 339° |
| 2026-05-05 15:36 | 48.97027 | 11.35724 | 20656 ft | 429 kts | 339° |
| 2026-05-05 15:36 | 48.99833 | 11.34170 | 21150 ft | 433 kts | 338° |
| 2026-05-05 15:37 | 49.02676 | 11.32594 | 21625 ft | 438 kts | 339° |
| 2026-05-05 15:37 | 49.05575 | 11.30984 | 22133 ft | 441 kts | 339° |
| 2026-05-05 15:37 | 49.08488 | 11.29365 | 22622 ft | 445 kts | 339° |
| 2026-05-05 15:37 | 49.11393 | 11.27750 | 23070 ft | 449 kts | 339° |
| 2026-05-05 15:38 | 49.14348 | 11.26103 | 23541 ft | 452 kts | 339° |
| 2026-05-05 15:38 | 49.17303 | 11.24455 | 24015 ft | 456 kts | 339° |
| 2026-05-05 15:38 | 49.20267 | 11.22800 | 24495 ft | 458 kts | 339° |
| 2026-05-05 15:38 | 49.23265 | 11.21115 | 24972 ft | 461 kts | 339° |
| 2026-05-05 15:39 | 49.26312 | 11.19394 | 25444 ft | 464 kts | 339° |
| 2026-05-05 15:39 | 49.29324 | 11.17691 | 25874 ft | 467 kts | 339° |
| 2026-05-05 15:39 | 49.32361 | 11.15971 | 26280 ft | 471 kts | 339° |
| 2026-05-05 15:39 | 49.35463 | 11.14213 | 26718 ft | 474 kts | 339° |
| 2026-05-05 15:40 | 49.38592 | 11.12436 | 27164 ft | 477 kts | 339° |
| 2026-05-05 15:40 | 49.41690 | 11.10673 | 27599 ft | 480 kts | 339° |
| 2026-05-05 15:40 | 49.44848 | 11.08877 | 28004 ft | 484 kts | 339° |
| 2026-05-05 15:40 | 49.48042 | 11.07056 | 28487 ft | 485 kts | 339° |
| 2026-05-05 15:41 | 49.51219 | 11.05242 | 29013 ft | 486 kts | 339° |
| 2026-05-05 15:41 | 49.54262 | 11.02945 | 29574 ft | 483 kts | 327° |
| 2026-05-05 15:41 | 49.57119 | 11.00219 | 30174 ft | 482 kts | 327° |
| 2026-05-05 15:41 | 49.60001 | 10.97511 | 30797 ft | 481 kts | 327° |
| 2026-05-05 15:42 | 49.62814 | 10.94862 | 31416 ft | 478 kts | 327° |
| 2026-05-05 15:42 | 49.65651 | 10.92187 | 31885 ft | 478 kts | 327° |
| 2026-05-05 15:42 | 49.68523 | 10.89471 | 31841 ft | 481 kts | 327° |
| 2026-05-05 15:43 | 49.74149 | 10.84150 | 31763 ft | 473 kts | 327° |
| 2026-05-05 15:43 | 49.79779 | 10.78809 | 31778 ft | 475 kts | 327° |
| 2026-05-05 15:44 | 49.85468 | 10.73396 | 31960 ft | 485 kts | 327° |
| 2026-05-05 15:44 | 49.88337 | 10.70663 | 32294 ft | 488 kts | 327° |
| 2026-05-05 15:44 | 49.91230 | 10.67902 | 32788 ft | 487 kts | 327° |
| 2026-05-05 15:44 | 49.94105 | 10.65156 | 33332 ft | 485 kts | 327° |
| 2026-05-05 15:45 | 49.96994 | 10.62390 | 33787 ft | 485 kts | 326° |
| 2026-05-05 15:45 | 49.99884 | 10.59619 | 34130 ft | 487 kts | 326° |
| 2026-05-05 15:45 | 50.02768 | 10.56845 | 34424 ft | 489 kts | 326° |
| 2026-05-05 15:45 | 50.05652 | 10.54072 | 34818 ft | 488 kts | 326° |
| 2026-05-05 15:46 | 50.08527 | 10.51302 | 35123 ft | 488 kts | 326° |
| 2026-05-05 15:46 | 50.11398 | 10.48531 | 35453 ft | 487 kts | 326° |
| 2026-05-05 15:46 | 50.14269 | 10.45757 | 35753 ft | 484 kts | 326° |
| 2026-05-05 15:47 | 50.19967 | 10.40119 | 35781 ft | 482 kts | 320° |
| 2026-05-05 15:47 | 50.21625 | 10.37782 | 35771 ft | 475 kts | 308° |
| 2026-05-05 15:47 | 50.24098 | 10.32210 | 35800 ft | 469 kts | 297° |
| 2026-05-05 15:48 | 50.27762 | 10.23795 | 35788 ft | 470 kts | 300° |
| 2026-05-05 15:48 | 50.31474 | 10.15454 | 35781 ft | 469 kts | 300° |
| 2026-05-05 15:49 | 50.35212 | 10.07047 | 35790 ft | 470 kts | 300° |
| 2026-05-05 15:49 | 50.38950 | 9.98618 | 35798 ft | 470 kts | 300° |
| 2026-05-05 15:50 | 50.42665 | 9.90210 | 35799 ft | 469 kts | 300° |
| 2026-05-05 15:50 | 50.44500 | 9.86051 | 35902 ft | 468 kts | 300° |
| 2026-05-05 15:50 | 50.46366 | 9.81808 | 35808 ft | 471 kts | 300° |
| 2026-05-05 15:51 | 50.50061 | 9.73395 | 35783 ft | 470 kts | 300° |
| 2026-05-05 15:51 | 50.53783 | 9.64892 | 35797 ft | 471 kts | 300° |
| 2026-05-05 15:52 | 50.57480 | 9.56419 | 35806 ft | 471 kts | 300° |
| 2026-05-05 15:52 | 50.61178 | 9.47916 | 35817 ft | 470 kts | 300° |
| 2026-05-05 15:53 | 50.64845 | 9.39457 | 35812 ft | 469 kts | 300° |
| 2026-05-05 15:53 | 50.68542 | 9.30904 | 35521 ft | 471 kts | 299° |
| 2026-05-05 15:53 | 50.70385 | 9.26624 | 35314 ft | 470 kts | 300° |
| 2026-05-05 15:54 | 50.72227 | 9.22344 | 34860 ft | 477 kts | 300° |
| 2026-05-05 15:54 | 50.74066 | 9.18060 | 34133 ft | 479 kts | 300° |
| 2026-05-05 15:54 | 50.75959 | 9.13649 | 33438 ft | 479 kts | 300° |
| 2026-05-05 15:54 | 50.77808 | 9.09332 | 32730 ft | 480 kts | 300° |
| 2026-05-05 15:55 | 50.79671 | 9.04973 | 31977 ft | 481 kts | 300° |
| 2026-05-05 15:55 | 50.81543 | 9.00586 | 31242 ft | 481 kts | 300° |
| 2026-05-05 15:55 | 50.83424 | 8.96183 | 30571 ft | 480 kts | 301° |
| 2026-05-05 15:55 | 50.85489 | 8.92040 | 29983 ft | 479 kts | 306° |
| 2026-05-05 15:56 | 50.87547 | 8.87981 | 29439 ft | 475 kts | 305° |
| 2026-05-05 15:56 | 50.89598 | 8.83899 | 28911 ft | 471 kts | 305° |
| 2026-05-05 15:56 | 50.91631 | 8.79837 | 28359 ft | 468 kts | 305° |
| 2026-05-05 15:56 | 50.93626 | 8.75842 | 27801 ft | 465 kts | 305° |
| 2026-05-05 15:57 | 50.95647 | 8.71790 | 27228 ft | 462 kts | 305° |
| 2026-05-05 15:57 | 50.97606 | 8.67849 | 26688 ft | 458 kts | 306° |
| 2026-05-05 15:57 | 50.99563 | 8.63914 | 26220 ft | 451 kts | 306° |
| 2026-05-05 15:57 | 51.01357 | 8.59931 | 25774 ft | 438 kts | 299° |
| 2026-05-05 15:58 | 51.02954 | 8.55862 | 25363 ft | 432 kts | 300° |
| 2026-05-05 15:58 | 51.04541 | 8.51805 | 24962 ft | 430 kts | 299° |
| 2026-05-05 15:58 | 51.06103 | 8.47788 | 24569 ft | 429 kts | 299° |
| 2026-05-05 15:58 | 51.07663 | 8.43771 | 24186 ft | 426 kts | 299° |
| 2026-05-05 15:59 | 51.09211 | 8.39770 | 23808 ft | 424 kts | 299° |
| 2026-05-05 15:59 | 51.10754 | 8.35775 | 23435 ft | 422 kts | 300° |
| 2026-05-05 15:59 | 51.12278 | 8.31828 | 23087 ft | 419 kts | 299° |
| 2026-05-05 15:59 | 51.13800 | 8.27878 | 22736 ft | 416 kts | 299° |
| 2026-05-05 16:00 | 51.15308 | 8.23957 | 22393 ft | 414 kts | 299° |
| 2026-05-05 16:00 | 51.16813 | 8.20042 | 21981 ft | 412 kts | 299° |
| 2026-05-05 16:00 | 51.18301 | 8.16160 | 21631 ft | 410 kts | 299° |
| 2026-05-05 16:00 | 51.19783 | 8.12294 | 21273 ft | 408 kts | 299° |
| 2026-05-05 16:01 | 51.21234 | 8.08499 | 20935 ft | 405 kts | 299° |
| 2026-05-05 16:01 | 51.22708 | 8.04638 | 20601 ft | 403 kts | 299° |
| 2026-05-05 16:01 | 51.23993 | 8.00721 | 20242 ft | 397 kts | 288° |
| 2026-05-05 16:01 | 51.24543 | 7.96472 | 19893 ft | 392 kts | 272° |
| 2026-05-05 16:02 | 51.24635 | 7.92158 | 19541 ft | 390 kts | 268° |
| 2026-05-05 16:02 | 51.24598 | 7.87839 | 19095 ft | 387 kts | 266° |
| 2026-05-05 16:02 | 51.24497 | 7.83584 | 18664 ft | 385 kts | 265° |
| 2026-05-05 16:02 | 51.24369 | 7.79341 | 18235 ft | 382 kts | 265° |
| 2026-05-05 16:03 | 51.24230 | 7.75117 | 17793 ft | 379 kts | 265° |
| 2026-05-05 16:03 | 51.24088 | 7.70957 | 17360 ft | 377 kts | 265° |
| 2026-05-05 16:03 | 51.23942 | 7.66799 | 16931 ft | 374 kts | 265° |
| 2026-05-05 16:03 | 51.23795 | 7.62689 | 16490 ft | 372 kts | 265° |
| 2026-05-05 16:04 | 51.23646 | 7.58572 | 16060 ft | 370 kts | 265° |
| 2026-05-05 16:04 | 51.23498 | 7.54501 | 15629 ft | 367 kts | 265° |
| 2026-05-05 16:04 | 51.23350 | 7.50487 | 15189 ft | 363 kts | 265° |
| 2026-05-05 16:04 | 51.23203 | 7.46505 | 14758 ft | 360 kts | 265° |
| 2026-05-05 16:05 | 51.23052 | 7.42516 | 14314 ft | 356 kts | 266° |
| 2026-05-05 16:05 | 51.22905 | 7.38627 | 13877 ft | 354 kts | 266° |
| 2026-05-05 16:05 | 51.22755 | 7.34720 | 13454 ft | 351 kts | 265° |
| 2026-05-05 16:05 | 51.22605 | 7.30811 | 12997 ft | 349 kts | 265° |
| 2026-05-05 16:06 | 51.22458 | 7.27017 | 12589 ft | 346 kts | 265° |
| 2026-05-05 16:06 | 51.22308 | 7.23187 | 12224 ft | 341 kts | 265° |
| 2026-05-05 16:06 | 51.22160 | 7.19473 | 11857 ft | 337 kts | 265° |
| 2026-05-05 16:06 | 51.22013 | 7.15782 | 11503 ft | 334 kts | 265° |
| 2026-05-05 16:07 | 51.21865 | 7.12100 | 11148 ft | 330 kts | 265° |
| 2026-05-05 16:07 | 51.21718 | 7.08465 | 10782 ft | 327 kts | 265° |
| 2026-05-05 16:07 | 51.21571 | 7.04846 | 10427 ft | 323 kts | 265° |
| 2026-05-05 16:07 | 51.21424 | 7.01295 | 10094 ft | 321 kts | 265° |
| 2026-05-05 16:08 | 51.21278 | 6.97781 | 9754 ft | 318 kts | 265° |
| 2026-05-05 16:08 | 51.21133 | 6.94287 | 9415 ft | 315 kts | 265° |
| 2026-05-05 16:08 | 51.20988 | 6.90835 | 9084 ft | 312 kts | 265° |
| 2026-05-05 16:08 | 51.20840 | 6.87355 | 8767 ft | 309 kts | 265° |
| 2026-05-05 16:09 | 51.20692 | 6.83970 | 8461 ft | 306 kts | 264° |
| 2026-05-05 16:09 | 51.20132 | 6.80813 | 8078 ft | 295 kts | 241° |
| 2026-05-05 16:09 | 51.18948 | 6.78232 | 7752 ft | 284 kts | 231° |
| 2026-05-05 16:09 | 51.17781 | 6.75795 | 7336 ft | 272 kts | 232° |
| 2026-05-05 16:10 | 51.16648 | 6.73426 | 6872 ft | 265 kts | 232° |
| 2026-05-05 16:10 | 51.15544 | 6.71121 | 6388 ft | 259 kts | 233° |
| 2026-05-05 16:10 | 51.14467 | 6.68872 | 5914 ft | 255 kts | 233° |
| 2026-05-05 16:10 | 51.13403 | 6.66652 | 5465 ft | 250 kts | 233° |
| 2026-05-05 16:11 | 51.12365 | 6.64487 | 5080 ft | 241 kts | 233° |
| 2026-05-05 16:11 | 51.10155 | 6.57720 | 4110 ft | 232 kts | 280° |
| 2026-05-05 16:12 | 51.10766 | 6.55431 | 3874 ft | 222 kts | 314° |
| 2026-05-05 16:12 | 51.13268 | 6.52891 | 3376 ft | 209 kts | 342° |
| 2026-05-05 16:13 | 51.17133 | 6.54203 | 2964 ft | 180 kts | 25° |
| 2026-05-05 16:13 | 51.18120 | 6.55317 | 3017 ft | 166 kts | 42° |
| 2026-05-05 16:13 | 51.18994 | 6.56547 | 3032 ft | 172 kts | 42° |
| 2026-05-05 16:14 | 51.20405 | 6.59477 | 2628 ft | 164 kts | 51° |
| 2026-05-05 16:14 | 51.21782 | 6.62318 | 2224 ft | 160 kts | 52° |
| 2026-05-05 16:15 | 51.23059 | 6.64994 | 1816 ft | 135 kts | 51° |
| 2026-05-05 16:15 | 51.24167 | 6.67291 | 1461 ft | 129 kts | 51° |
| 2026-05-05 16:16 | 51.25261 | 6.69576 | 1115 ft | 131 kts | 50° |